Berlare, Belgium
Current Conditions -  °F | °C
As of 12:20 PM on Saturday 20 Dec 2014 (Local Time) from EBAW Reporting Station
Broken Clouds Broken Clouds  
Wind Chill: 40°   Ceiling: 3400
Heat Index: 46°   Visibility: 6mi
Dew Point: 37°   Wind: 14mph
Humidity: 71%   Direction: 260°W
Pressure: 30.18"   Gusts: NA
Location:  51.03°N, 4°E
Report Text: EBAW 201120Z 26012KT 9999 SCT026 BKN034 08/03 Q1022 NOSIG
Loading
Personal Weather Stations






























Interactive Weather Map New forecast layout! Learn more

10-Day Weather Forecast

Advertisements
Track Severe Weather on mobile